createdAt,value
2023-10-21T00:00:34.002Z,14.13
2023-10-21T00:03:06.753Z,14.13
2023-10-21T00:05:39.882Z,11.93
2023-10-21T00:08:14.237Z,12.93
2023-10-21T00:10:48.093Z,13.37
2023-10-21T00:13:20.881Z,13.23
2023-10-21T00:15:53.490Z,12.43
2023-10-21T00:18:25.414Z,13.53
2023-10-21T00:20:58.303Z,13.40
2023-10-21T00:23:33.241Z,13.77
2023-10-21T00:26:05.894Z,12.97
2023-10-21T00:28:38.496Z,13.33
2023-10-21T00:31:11.284Z,14.17
2023-10-21T00:33:44.112Z,13.33
2023-10-21T00:36:16.976Z,13.97
2023-10-21T00:38:51.125Z,15.03
2023-10-21T00:41:23.899Z,13.50
2023-10-21T00:43:59.135Z,13.80
2023-10-21T00:46:34.232Z,14.23
2023-10-21T00:49:07.024Z,14.10
2023-10-21T00:51:40.469Z,14.40
2023-10-21T00:54:15.939Z,14.10
2023-10-21T00:56:48.754Z,14.43
2023-10-21T00:59:21.463Z,14.27
2023-10-21T01:01:54.289Z,14.30
2023-10-21T01:04:27.346Z,14.37
2023-10-21T01:07:01.043Z,14.60
2023-10-21T01:09:35.231Z,14.23
2023-10-21T01:12:08.619Z,14.57
2023-10-21T01:14:41.468Z,14.53
2023-10-21T01:17:14.059Z,14.47
2023-10-21T01:19:46.686Z,15.20
2023-10-21T01:22:19.458Z,15.50
2023-10-21T01:24:56.011Z,16.47
2023-10-21T01:27:28.736Z,16.43
2023-10-21T01:30:01.480Z,14.90
2023-10-21T01:32:34.195Z,15.67
2023-10-21T01:35:08.124Z,17.30
2023-10-21T01:37:40.710Z,16.77
2023-10-21T01:40:15.035Z,15.53
2023-10-21T01:42:47.747Z,15.43
2023-10-21T01:45:20.950Z,16.30
2023-10-21T01:47:54.618Z,16.00
2023-10-21T01:50:29.431Z,15.57
2023-10-21T01:53:02.119Z,17.80
2023-10-21T01:55:36.286Z,17.50
2023-10-21T01:58:08.970Z,16.13
2023-10-21T02:00:41.691Z,15.47
2023-10-21T02:03:14.464Z,17.57
2023-10-21T02:05:49.546Z,16.77
2023-10-21T02:08:24.380Z,18.47
2023-10-21T02:11:02.441Z,16.73
2023-10-21T02:13:38.861Z,16.60
2023-10-21T02:16:11.791Z,17.07
2023-10-21T02:18:44.623Z,17.70
2023-10-21T02:21:17.309Z,16.90
2023-10-21T02:23:50.023Z,17.20
2023-10-21T02:26:29.002Z,18.03
2023-10-21T02:29:01.771Z,16.57
2023-10-21T02:31:35.064Z,16.90
2023-10-21T02:34:08.226Z,17.53
2023-10-21T02:36:40.968Z,17.00
2023-10-21T02:39:14.478Z,17.30
2023-10-21T02:41:48.930Z,16.93
2023-10-21T02:44:21.873Z,18.43
2023-10-21T02:46:54.658Z,17.07
2023-10-21T02:49:27.227Z,18.17
2023-10-21T02:52:02.538Z,17.53
2023-10-21T02:54:35.659Z,18.20
2023-10-21T02:57:09.769Z,16.97
2023-10-21T02:59:42.445Z,17.50
2023-10-21T03:02:17.507Z,18.07
2023-10-21T03:04:50.253Z,17.90
2023-10-21T03:07:23.895Z,17.83
2023-10-21T03:09:57.451Z,20.77
2023-10-21T03:12:31.613Z,18.83
2023-10-21T03:15:04.660Z,18.13
2023-10-21T03:17:37.634Z,18.80
2023-10-21T03:20:13.129Z,18.67
2023-10-21T03:22:45.757Z,16.83
2023-10-21T03:25:19.137Z,19.13
2023-10-21T03:27:56.406Z,18.37
2023-10-21T03:30:31.293Z,17.97
2023-10-21T03:33:04.301Z,18.07
2023-10-21T03:35:40.002Z,17.63
2023-10-21T03:38:12.848Z,17.70
2023-10-21T03:40:45.675Z,19.33
2023-10-21T03:43:19.955Z,18.00
2023-10-21T03:45:52.701Z,19.27
2023-10-21T03:48:25.757Z,18.13
2023-10-21T03:51:06.364Z,18.60
2023-10-21T03:53:39.495Z,17.50
2023-10-21T03:56:12.555Z,17.53
2023-10-21T03:58:48.984Z,19.03
2023-10-21T04:01:24.427Z,17.37
2023-10-21T04:03:57.398Z,18.23
2023-10-21T04:06:30.754Z,17.97
2023-10-21T04:09:04.126Z,17.90
2023-10-21T04:11:36.717Z,18.47
2023-10-21T04:14:13.559Z,17.17
2023-10-21T04:16:46.611Z,18.17
2023-10-21T04:19:20.352Z,18.80
2023-10-21T04:21:53.873Z,17.80
2023-10-21T04:24:26.510Z,17.93
2023-10-21T04:26:59.299Z,18.80
2023-10-21T04:29:35.439Z,18.17
2023-10-21T04:32:08.006Z,17.67
2023-10-21T04:34:43.460Z,17.07
2023-10-21T04:37:16.146Z,16.43
2023-10-21T04:39:48.885Z,17.63
2023-10-21T04:42:21.821Z,18.47
2023-10-21T04:44:58.476Z,17.87
2023-10-21T04:47:31.267Z,16.87
2023-10-21T04:50:04.356Z,17.17
2023-10-21T04:52:38.457Z,17.47
2023-10-21T04:55:11.177Z,18.43
2023-10-21T04:57:44.184Z,17.43
2023-10-21T05:00:18.580Z,17.50
2023-10-21T05:02:51.444Z,17.63
2023-10-21T05:05:24.282Z,19.93
2023-10-21T05:07:57.080Z,17.50
2023-10-21T05:10:29.887Z,17.20
2023-10-21T05:13:02.620Z,17.90
2023-10-21T05:15:37.628Z,17.80
2023-10-21T05:18:10.399Z,18.23
2023-10-21T05:20:43.748Z,16.63
2023-10-21T05:23:16.501Z,16.77
2023-10-21T05:25:49.226Z,16.87
2023-10-21T05:28:21.917Z,17.37
2023-10-21T05:30:56.193Z,17.80
2023-10-21T05:33:30.705Z,17.43
2023-10-21T05:36:04.330Z,17.30
2023-10-21T05:38:37.085Z,17.13
2023-10-21T05:41:09.849Z,18.23
2023-10-21T05:43:45.361Z,17.97
2023-10-21T05:46:19.468Z,17.10
2023-10-21T05:48:51.254Z,17.00
2023-10-21T05:51:24.197Z,16.50
2023-10-21T05:53:59.545Z,15.87
2023-10-21T05:56:35.112Z,16.03
2023-10-21T05:59:07.678Z,16.10
2023-10-21T06:01:41.901Z,16.80
2023-10-21T06:04:14.556Z,16.63
2023-10-21T06:06:47.156Z,17.07
2023-10-21T06:09:19.783Z,17.30
2023-10-21T06:11:55.199Z,17.07
2023-10-21T06:14:29.576Z,16.70
2023-10-21T06:17:04.701Z,17.33
2023-10-21T06:19:37.292Z,15.67
2023-10-21T06:22:10.002Z,15.40
2023-10-21T06:24:42.605Z,15.63
2023-10-21T06:27:15.314Z,16.40
2023-10-21T06:29:47.924Z,16.67
2023-10-21T06:32:21.893Z,17.67
2023-10-21T06:34:54.444Z,19.00
2023-10-21T06:37:27.066Z,19.57
2023-10-21T06:39:59.719Z,17.27
2023-10-21T06:42:34.241Z,16.73
2023-10-21T06:45:07.991Z,15.90
2023-10-21T06:47:44.548Z,16.17
2023-10-21T06:50:17.714Z,15.50
2023-10-21T06:52:50.438Z,16.43
2023-10-21T06:55:23.134Z,16.53
2023-10-21T06:57:55.757Z,16.07
2023-10-21T07:00:30.327Z,16.33
2023-10-21T07:03:04.676Z,16.63
2023-10-21T07:05:37.404Z,16.50
2023-10-21T07:08:10.238Z,15.80
2023-10-21T07:10:44.505Z,15.13
2023-10-21T07:13:17.110Z,15.73
2023-10-21T07:15:49.672Z,16.20
2023-10-21T07:18:23.728Z,15.10
2023-10-21T07:20:58.527Z,16.87
2023-10-21T07:23:31.128Z,17.27
2023-10-21T07:26:04.546Z,16.60
2023-10-21T07:28:37.251Z,16.73
2023-10-21T07:31:10.138Z,16.40
2023-10-21T07:33:44.154Z,17.70
2023-10-21T07:36:16.811Z,15.57
2023-10-21T07:38:49.785Z,16.93
2023-10-21T07:41:22.820Z,17.43
2023-10-21T07:43:55.595Z,17.50
2023-10-21T07:46:29.728Z,15.90
2023-10-21T07:49:06.603Z,16.30
2023-10-21T07:51:39.276Z,16.00
2023-10-21T07:54:13.141Z,16.83
2023-10-21T07:56:49.433Z,17.43
2023-10-21T07:59:23.539Z,17.27
2023-10-21T08:01:56.312Z,17.53
2023-10-21T08:04:30.525Z,16.77
2023-10-21T08:07:03.187Z,19.03
2023-10-21T08:09:37.352Z,18.10
2023-10-21T08:12:10.308Z,16.87
2023-10-21T08:14:43.129Z,17.63
2023-10-21T08:17:16.026Z,16.67
2023-10-21T08:19:50.113Z,16.00
2023-10-21T08:22:26.116Z,16.50
2023-10-21T08:24:58.857Z,16.00
2023-10-21T08:27:32.763Z,15.53
2023-10-21T08:30:06.118Z,15.47
2023-10-21T08:32:38.910Z,15.57
2023-10-21T08:35:14.879Z,15.17
2023-10-21T08:37:47.496Z,15.30
2023-10-21T08:40:20.392Z,15.70
2023-10-21T08:43:02.158Z,14.57
2023-10-21T08:45:36.688Z,14.90
2023-10-21T08:48:11.792Z,14.30
2023-10-21T08:50:49.976Z,14.63
2023-10-21T08:53:22.853Z,13.43
2023-10-21T08:55:55.804Z,12.90
2023-10-21T08:58:30.431Z,13.57
2023-10-21T09:01:03.309Z,13.27
2023-10-21T09:03:36.624Z,13.60
2023-10-21T09:06:13.040Z,14.00
2023-10-21T09:08:46.811Z,13.17
2023-10-21T09:11:20.322Z,13.40
2023-10-21T09:13:56.334Z,13.50
2023-10-21T09:16:31.557Z,13.87
2023-10-21T09:19:05.164Z,13.77
2023-10-21T09:21:39.985Z,12.90
2023-10-21T09:24:21.511Z,12.90
2023-10-21T09:26:54.377Z,13.63
2023-10-21T09:29:26.965Z,13.47
2023-10-21T09:32:00.866Z,12.60
2023-10-21T09:34:34.536Z,14.27
2023-10-21T09:37:09.779Z,12.20
2023-10-21T09:39:44.459Z,13.10
2023-10-21T09:42:18.086Z,12.77
2023-10-21T09:44:51.187Z,13.97
2023-10-21T09:47:24.273Z,13.67
2023-10-21T09:49:57.468Z,12.37
2023-10-21T09:52:38.141Z,13.10
2023-10-21T09:55:12.442Z,12.43
2023-10-21T09:57:45.601Z,12.37
2023-10-21T10:00:20.650Z,12.50
2023-10-21T10:02:54.898Z,11.87
2023-10-21T10:05:29.321Z,12.40
2023-10-21T10:08:05.560Z,11.97
2023-10-21T10:10:39.574Z,12.00
2023-10-21T10:13:15.204Z,11.40
2023-10-21T10:15:50.522Z,11.00
2023-10-21T10:18:25.312Z,11.00
2023-10-21T10:21:02.733Z,10.87
2023-10-21T10:23:37.103Z,11.17
2023-10-21T10:26:10.193Z,9.93
2023-10-21T10:28:43.138Z,10.40
2023-10-21T10:31:16.229Z,10.00
2023-10-21T10:33:52.489Z,9.00
2023-10-21T10:36:29.313Z,9.87
2023-10-21T10:39:05.600Z,8.67
2023-10-21T10:41:44.400Z,8.70
2023-10-21T10:44:19.556Z,8.17
2023-10-21T10:46:54.640Z,8.47
2023-10-21T10:49:28.163Z,7.40
2023-10-21T10:52:03.131Z,7.60
2023-10-21T10:54:41.328Z,7.77
2023-10-21T10:57:18.688Z,7.43
2023-10-21T10:59:51.694Z,7.90
2023-10-21T11:02:30.834Z,8.07
2023-10-21T11:05:04.869Z,6.50
2023-10-21T11:07:41.090Z,8.53
2023-10-21T11:10:19.423Z,5.80
2023-10-21T11:12:52.146Z,6.03
2023-10-21T11:15:25.197Z,5.83
2023-10-21T11:17:58.043Z,3.67
2023-10-21T11:20:30.805Z,3.63
2023-10-21T11:23:11.073Z,2.73
2023-10-21T11:25:45.237Z,2.83
2023-10-21T11:28:18.287Z,1.70
2023-10-21T11:30:51.509Z,1.60
2023-10-21T11:33:24.275Z,1.77
2023-10-21T11:35:57.616Z,1.60
2023-10-21T11:38:30.682Z,1.30
2023-10-21T11:41:08.763Z,1.23
2023-10-21T11:43:46.036Z,1.40
2023-10-21T11:46:19.326Z,1.10
2023-10-21T11:48:52.551Z,1.33
2023-10-21T11:51:25.336Z,1.30
2023-10-21T11:54:01.148Z,1.33
2023-10-21T11:56:56.940Z,1.20
2023-10-21T11:59:51.274Z,1.20
2023-10-21T12:02:38.771Z,1.20
2023-10-21T12:05:34.514Z,1.00
2023-10-21T12:08:24.981Z,1.27
2023-10-21T12:11:20.177Z,1.60
2023-10-21T12:14:18.883Z,0.90
2023-10-21T12:17:14.712Z,0.83
2023-10-21T12:19:52.929Z,1.63
2023-10-21T12:22:42.387Z,1.03
2023-10-21T12:25:31.747Z,1.20
2023-10-21T12:28:21.951Z,1.37
2023-10-21T12:31:21.871Z,1.20
2023-10-21T12:34:14.280Z,1.10
2023-10-21T12:37:14.339Z,1.30
2023-10-21T12:39:48.948Z,1.10
2023-10-21T12:42:28.182Z,1.10
2023-10-21T12:44:59.909Z,1.20
2023-10-21T12:47:35.152Z,1.20
2023-10-21T12:50:14.186Z,0.97
2023-10-21T12:52:49.150Z,1.30
2023-10-21T12:55:26.582Z,1.07
2023-10-21T12:57:59.551Z,1.10
2023-10-21T13:00:32.418Z,1.00
2023-10-21T13:03:12.265Z,1.10
2023-10-21T13:05:47.470Z,1.00
2023-10-21T13:08:20.512Z,1.20
2023-10-21T13:10:55.754Z,1.13
2023-10-21T13:13:29.374Z,1.23
2023-10-21T13:16:02.167Z,1.57
2023-10-21T13:18:36.681Z,1.23
2023-10-21T13:21:09.471Z,1.03
2023-10-21T13:23:42.142Z,1.30
2023-10-21T13:26:14.875Z,1.33
2023-10-21T13:28:47.573Z,1.20
2023-10-21T13:31:20.258Z,1.10
2023-10-21T13:33:54.519Z,1.10
2023-10-21T13:36:27.328Z,1.07
2023-10-21T13:39:01.414Z,1.13
2023-10-21T13:41:37.129Z,1.00
2023-10-21T13:44:09.822Z,1.03
2023-10-21T13:46:42.610Z,0.87
2023-10-21T13:49:17.586Z,1.00
2023-10-21T13:51:52.926Z,1.13
2023-10-21T13:54:25.741Z,1.20
2023-10-21T13:57:02.419Z,1.37
2023-10-21T13:59:35.260Z,1.10
2023-10-21T14:02:10.006Z,1.60
2023-10-21T14:04:44.072Z,1.40
2023-10-21T14:07:17.818Z,1.20
2023-10-21T14:09:50.749Z,1.60
2023-10-21T14:12:23.823Z,1.40
2023-10-21T14:15:06.524Z,1.20
2023-10-21T14:17:40.474Z,1.40
2023-10-21T14:20:17.683Z,1.23
2023-10-21T14:22:52.244Z,1.80
2023-10-21T14:25:24.821Z,1.50
2023-10-21T14:27:57.501Z,4.20
2023-10-21T14:30:32.444Z,2.63
2023-10-21T14:33:06.067Z,2.60
2023-10-21T14:35:40.742Z,2.10
2023-10-21T14:38:14.454Z,1.60
2023-10-21T14:40:49.197Z,1.70
2023-10-21T14:43:25.948Z,1.87
2023-10-21T14:45:59.172Z,1.60
2023-10-21T14:48:34.707Z,1.93
2023-10-21T14:51:09.271Z,1.50
2023-10-21T14:53:44.440Z,1.60
2023-10-21T14:56:17.227Z,1.40
2023-10-21T14:58:50.233Z,2.30
2023-10-21T15:01:24.771Z,2.53
2023-10-21T15:03:59.007Z,3.60
2023-10-21T15:06:33.827Z,2.23
2023-10-21T15:09:06.873Z,2.30
2023-10-21T15:11:39.766Z,4.70
2023-10-21T15:14:12.491Z,5.60
2023-10-21T15:16:47.314Z,3.07
2023-10-21T15:19:20.021Z,2.80
2023-10-21T15:21:54.200Z,3.10
2023-10-21T15:24:26.790Z,3.37
2023-10-21T15:27:01.034Z,3.67
2023-10-21T15:29:36.202Z,4.90
2023-10-21T15:32:11.195Z,6.80
2023-10-21T15:34:47.293Z,4.13
2023-10-21T15:37:22.326Z,4.00
2023-10-21T15:39:57.025Z,4.30
2023-10-21T15:42:31.042Z,4.10
2023-10-21T15:45:03.726Z,5.00
2023-10-21T15:47:38.709Z,4.83
2023-10-21T15:50:12.082Z,4.23
2023-10-21T15:52:46.603Z,3.83
2023-10-21T15:55:19.186Z,5.67
2023-10-21T15:57:51.967Z,5.33
2023-10-21T16:00:24.675Z,5.27
2023-10-21T16:02:57.659Z,5.63
2023-10-21T16:05:30.324Z,4.30
2023-10-21T16:08:04.790Z,3.97
2023-10-21T16:10:37.520Z,4.50
2023-10-21T16:13:10.338Z,4.53
2023-10-21T16:15:43.656Z,4.90
2023-10-21T16:18:16.489Z,5.13
2023-10-21T16:20:53.533Z,4.43
2023-10-21T16:23:27.701Z,4.60
2023-10-21T16:26:00.458Z,4.83
2023-10-21T16:28:33.102Z,4.90
2023-10-21T16:31:06.984Z,5.23
2023-10-21T16:33:39.772Z,5.60
2023-10-21T16:36:12.518Z,5.60
2023-10-21T16:38:49.468Z,5.57
2023-10-21T16:41:22.153Z,6.40
2023-10-21T16:43:54.946Z,5.93
2023-10-21T16:46:27.916Z,6.73
2023-10-21T16:49:00.686Z,7.13
2023-10-21T16:51:33.503Z,7.00
2023-10-21T16:54:07.822Z,8.27
2023-10-21T16:56:40.523Z,8.73
2023-10-21T16:59:13.310Z,8.43
2023-10-21T17:01:47.770Z,9.10
2023-10-21T17:04:20.800Z,17.00
2023-10-21T17:06:54.169Z,15.10
2023-10-21T17:09:28.359Z,19.20
2023-10-21T17:12:01.023Z,17.07
2023-10-21T17:14:33.859Z,14.23
2023-10-21T17:17:08.500Z,12.00
2023-10-21T17:19:41.256Z,12.80
2023-10-21T17:22:13.905Z,9.50
2023-10-21T17:24:48.047Z,9.43
2023-10-21T17:27:20.789Z,6.93
2023-10-21T17:29:53.478Z,6.17
2023-10-21T17:32:26.120Z,6.83
2023-10-21T17:34:58.913Z,7.03
2023-10-21T17:37:31.569Z,7.03
2023-10-21T17:40:06.920Z,7.23
2023-10-21T17:42:39.596Z,5.60
2023-10-21T17:45:14.240Z,6.30
2023-10-21T17:47:47.011Z,5.57
2023-10-21T17:50:20.547Z,4.90
2023-10-21T17:52:53.264Z,3.97
2023-10-21T17:55:27.321Z,4.60
2023-10-21T17:58:00.512Z,4.77
2023-10-21T18:00:33.255Z,5.03
2023-10-21T18:03:07.711Z,5.33
2023-10-21T18:05:40.580Z,5.27
2023-10-21T18:08:13.197Z,5.50
2023-10-21T18:10:47.266Z,5.97
2023-10-21T18:13:22.546Z,5.93
2023-10-21T18:15:55.320Z,6.03
2023-10-21T18:18:28.133Z,5.87
2023-10-21T18:21:00.920Z,6.03
2023-10-21T18:23:33.663Z,6.33
2023-10-21T18:26:07.830Z,6.83
2023-10-21T18:28:40.599Z,7.17
2023-10-21T18:31:13.466Z,6.43
2023-10-21T18:33:46.202Z,6.83
2023-10-21T18:36:19.047Z,7.33
2023-10-21T18:38:51.734Z,8.17
2023-10-21T18:41:28.784Z,7.37
2023-10-21T18:44:01.810Z,7.13
2023-10-21T18:46:34.537Z,7.80
2023-10-21T18:49:07.274Z,7.43
2023-10-21T18:51:40.032Z,7.70
2023-10-21T18:54:12.783Z,8.20
2023-10-21T18:56:46.853Z,7.23
2023-10-21T18:59:19.574Z,7.93
2023-10-21T19:01:54.407Z,8.07
2023-10-21T19:04:27.185Z,7.83
2023-10-21T19:07:00.148Z,8.07
2023-10-21T19:09:34.930Z,8.87
2023-10-21T19:12:09.859Z,8.53
2023-10-21T19:14:42.573Z,8.73
2023-10-21T19:17:15.259Z,8.40
2023-10-21T19:19:51.074Z,8.90
2023-10-21T19:22:23.706Z,8.27
2023-10-21T19:24:56.417Z,8.37
2023-10-21T19:27:30.790Z,7.83
2023-10-21T19:30:03.361Z,9.10
2023-10-21T19:32:36.862Z,8.47
2023-10-21T19:35:09.665Z,8.20
2023-10-21T19:37:50.697Z,8.27
2023-10-21T19:40:28.675Z,8.27
2023-10-21T19:43:03.664Z,8.67
2023-10-21T19:45:40.904Z,8.97
2023-10-21T19:48:13.771Z,9.30
2023-10-21T19:50:49.012Z,8.33
2023-10-21T19:53:21.706Z,9.00
2023-10-21T19:55:54.890Z,7.93
2023-10-21T19:58:29.447Z,9.43
2023-10-21T20:01:06.110Z,8.33
2023-10-21T20:03:40.776Z,8.37
2023-10-21T20:06:15.146Z,8.90
2023-10-21T20:08:50.814Z,8.53
2023-10-21T20:11:25.090Z,9.27
2023-10-21T20:13:59.218Z,8.50
2023-10-21T20:16:39.256Z,8.93
2023-10-21T20:19:14.573Z,8.17
2023-10-21T20:21:47.360Z,9.03
2023-10-21T20:24:20.287Z,9.40
2023-10-21T20:26:53.028Z,9.27
2023-10-21T20:29:27.092Z,9.63
2023-10-21T20:31:59.804Z,8.40
2023-10-21T20:34:32.768Z,9.33
2023-10-21T20:37:09.754Z,9.13
2023-10-21T20:39:56.348Z,9.50
2023-10-21T20:42:29.011Z,8.90
2023-10-21T20:45:04.457Z,10.00
2023-10-21T20:47:37.172Z,8.40
2023-10-21T20:50:10.145Z,9.10
2023-10-21T20:52:42.734Z,9.27
2023-10-21T20:55:15.725Z,9.37
2023-10-21T20:57:48.483Z,9.30
2023-10-21T21:00:23.402Z,9.10
2023-10-21T21:02:55.995Z,9.60
2023-10-21T21:05:28.663Z,9.13
2023-10-21T21:08:01.839Z,9.13
2023-10-21T21:10:37.533Z,8.93
2023-10-21T21:13:10.104Z,9.67
2023-10-21T21:15:44.253Z,9.67
2023-10-21T21:18:17.146Z,9.13
2023-10-21T21:20:49.878Z,10.13
2023-10-21T21:23:23.505Z,9.13
2023-10-21T21:25:56.317Z,9.70
2023-10-21T21:28:29.170Z,9.77
2023-10-21T21:31:03.296Z,10.73
2023-10-21T21:33:37.803Z,14.93
2023-10-21T21:36:10.822Z,11.23
2023-10-21T21:38:46.224Z,11.10
2023-10-21T21:41:19.812Z,13.03
2023-10-21T21:43:52.469Z,13.70
2023-10-21T21:46:26.501Z,12.40
2023-10-21T21:49:00.738Z,12.23
2023-10-21T21:51:35.151Z,12.03
2023-10-21T21:54:07.974Z,11.90
2023-10-21T21:56:40.729Z,12.80
2023-10-21T21:59:13.470Z,12.23
2023-10-21T22:01:48.644Z,13.37
2023-10-21T22:04:23.500Z,12.50
2023-10-21T22:06:57.098Z,14.13
2023-10-21T22:09:29.885Z,12.93
2023-10-21T22:12:05.315Z,13.30
2023-10-21T22:14:38.465Z,13.43
2023-10-21T22:17:12.742Z,13.63
2023-10-21T22:19:45.541Z,13.67
2023-10-21T22:22:18.245Z,13.53
2023-10-21T22:24:55.887Z,13.27
2023-10-21T22:27:29.155Z,13.00
2023-10-21T22:30:01.923Z,13.40
2023-10-21T22:32:36.227Z,13.03
2023-10-21T22:35:09.720Z,12.80
2023-10-21T22:37:42.444Z,13.40
2023-10-21T22:40:18.409Z,13.50
2023-10-21T22:42:51.082Z,12.53
2023-10-21T22:45:23.741Z,14.00
2023-10-21T22:47:57.903Z,13.33
2023-10-21T22:50:31.021Z,13.00
2023-10-21T22:53:05.430Z,14.27
2023-10-21T22:55:38.827Z,14.27
2023-10-21T22:58:11.750Z,12.87
2023-10-21T23:00:44.696Z,13.00
2023-10-21T23:03:18.746Z,14.60
2023-10-21T23:05:53.468Z,13.60
2023-10-21T23:08:28.383Z,12.97
2023-10-21T23:11:01.435Z,13.87
2023-10-21T23:13:34.116Z,13.93
2023-10-21T23:16:08.841Z,14.30
2023-10-21T23:18:43.098Z,12.53
2023-10-21T23:21:16.029Z,13.87
2023-10-21T23:23:48.964Z,13.30
2023-10-21T23:26:20.619Z,12.77
2023-10-21T23:28:53.265Z,12.67
2023-10-21T23:31:28.517Z,12.40
2023-10-21T23:34:11.304Z,11.77
2023-10-21T23:36:44.632Z,11.87
2023-10-21T23:39:21.788Z,11.73
2023-10-21T23:41:54.548Z,12.20
2023-10-21T23:44:27.659Z,12.50
2023-10-21T23:47:01.158Z,11.10
2023-10-21T23:49:35.327Z,10.80
2023-10-21T23:52:10.758Z,12.03
2023-10-21T23:54:43.633Z,11.27
2023-10-21T23:57:17.084Z,11.13
2023-10-21T23:59:49.778Z,11.37
